sensor_id;sensor_type;location;lat;lon;timestamp;pressure;altitude;pressure_sealevel;temperature;humidity
73671;BME280;61968;48.178;11.566;2022-07-09T00:00:11;96848.31;;;16.59;31.46
73671;BME280;61968;48.178;11.566;2022-07-09T00:02:38;96838.13;;;16.56;31.54
73671;BME280;61968;48.178;11.566;2022-07-09T00:05:05;96843.78;;;16.43;31.70
73671;BME280;61968;48.178;11.566;2022-07-09T00:07:33;96842.88;;;16.37;31.91
73671;BME280;61968;48.178;11.566;2022-07-09T00:09:59;96848.22;;;16.37;31.77
73671;BME280;61968;48.178;11.566;2022-07-09T00:12:26;96841.88;;;16.26;31.74
73671;BME280;61968;48.178;11.566;2022-07-09T00:14:52;96836.00;;;16.24;31.83
73671;BME280;61968;48.178;11.566;2022-07-09T00:17:19;96835.72;;;16.26;31.98
73671;BME280;61968;48.178;11.566;2022-07-09T00:19:46;96840.41;;;16.19;31.86
73671;BME280;61968;48.178;11.566;2022-07-09T00:22:13;96835.13;;;16.07;32.22
73671;BME280;61968;48.178;11.566;2022-07-09T00:24:41;96828.25;;;16.11;32.20
73671;BME280;61968;48.178;11.566;2022-07-09T00:27:07;96830.66;;;16.24;32.34
73671;BME280;61968;48.178;11.566;2022-07-09T00:29:34;96819.25;;;16.29;32.09
73671;BME280;61968;48.178;11.566;2022-07-09T00:32:00;96819.09;;;16.36;31.87
73671;BME280;61968;48.178;11.566;2022-07-09T00:34:27;96825.38;;;16.29;31.99
73671;BME280;61968;48.178;11.566;2022-07-09T00:36:53;96825.25;;;16.36;32.08
73671;BME280;61968;48.178;11.566;2022-07-09T00:39:20;96817.78;;;16.21;32.38
73671;BME280;61968;48.178;11.566;2022-07-09T00:41:48;96818.00;;;16.03;32.65
73671;BME280;61968;48.178;11.566;2022-07-09T00:44:14;96808.34;;;16.02;32.88
73671;BME280;61968;48.178;11.566;2022-07-09T00:46:41;96813.34;;;15.98;32.62
73671;BME280;61968;48.178;11.566;2022-07-09T00:49:07;96807.69;;;15.95;32.90
73671;BME280;61968;48.178;11.566;2022-07-09T00:51:34;96815.44;;;15.96;32.95
73671;BME280;61968;48.178;11.566;2022-07-09T00:54:01;96815.13;;;15.81;33.20
73671;BME280;61968;48.178;11.566;2022-07-09T00:56:29;96809.56;;;15.82;33.28
73671;BME280;61968;48.178;11.566;2022-07-09T00:58:58;96808.53;;;15.72;33.57
73671;BME280;61968;48.178;11.566;2022-07-09T01:01:26;96814.69;;;15.72;33.86
73671;BME280;61968;48.178;11.566;2022-07-09T01:03:52;96813.41;;;15.75;33.84
73671;BME280;61968;48.178;11.566;2022-07-09T01:06:19;96805.84;;;15.83;33.55
73671;BME280;61968;48.178;11.566;2022-07-09T01:08:45;96800.06;;;15.75;33.86
73671;BME280;61968;48.178;11.566;2022-07-09T01:11:12;96796.75;;;15.68;33.89
73671;BME280;61968;48.178;11.566;2022-07-09T01:13:38;96803.22;;;15.72;33.92
73671;BME280;61968;48.178;11.566;2022-07-09T01:16:12;96796.59;;;15.74;33.88
73671;BME280;61968;48.178;11.566;2022-07-09T01:18:40;96794.03;;;15.79;33.82
73671;BME280;61968;48.178;11.566;2022-07-09T01:21:08;96793.56;;;15.82;33.64
73671;BME280;61968;48.178;11.566;2022-07-09T01:23:34;96793.94;;;15.74;33.63
73671;BME280;61968;48.178;11.566;2022-07-09T01:26:01;96784.81;;;15.70;33.69
73671;BME280;61968;48.178;11.566;2022-07-09T01:28:27;96787.63;;;15.63;33.81
73671;BME280;61968;48.178;11.566;2022-07-09T01:30:54;96781.91;;;15.60;33.88
73671;BME280;61968;48.178;11.566;2022-07-09T01:33:20;96791.59;;;15.78;33.55
73671;BME280;61968;48.178;11.566;2022-07-09T01:35:47;96783.63;;;15.66;33.74
73671;BME280;61968;48.178;11.566;2022-07-09T01:38:15;96785.66;;;15.47;34.21
73671;BME280;61968;48.178;11.566;2022-07-09T01:40:41;96776.41;;;15.50;34.17
73671;BME280;61968;48.178;11.566;2022-07-09T01:43:08;96782.94;;;15.71;33.84
73671;BME280;61968;48.178;11.566;2022-07-09T01:45:35;96777.59;;;15.71;33.96
73671;BME280;61968;48.178;11.566;2022-07-09T01:48:01;96771.22;;;15.72;33.95
73671;BME280;61968;48.178;11.566;2022-07-09T01:50:28;96776.72;;;15.53;34.47
73671;BME280;61968;48.178;11.566;2022-07-09T01:52:54;96776.53;;;15.43;34.73
73671;BME280;61968;48.178;11.566;2022-07-09T01:55:22;96773.97;;;15.48;34.65
73671;BME280;61968;48.178;11.566;2022-07-09T01:57:49;96770.50;;;15.36;35.21
73671;BME280;61968;48.178;11.566;2022-07-09T02:00:15;96770.16;;;15.44;35.16
73671;BME280;61968;48.178;11.566;2022-07-09T02:02:43;96759.34;;;15.51;34.87
73671;BME280;61968;48.178;11.566;2022-07-09T02:05:10;96763.78;;;15.45;35.33
73671;BME280;61968;48.178;11.566;2022-07-09T02:07:36;96759.34;;;15.51;35.24
73671;BME280;61968;48.178;11.566;2022-07-09T02:10:04;96757.09;;;15.31;35.55
73671;BME280;61968;48.178;11.566;2022-07-09T02:12:32;96751.81;;;15.19;35.98
73671;BME280;61968;48.178;11.566;2022-07-09T02:14:58;96750.28;;;15.23;35.93
73671;BME280;61968;48.178;11.566;2022-07-09T02:17:25;96753.31;;;15.03;36.21
73671;BME280;61968;48.178;11.566;2022-07-09T02:19:51;96754.22;;;15.09;36.37
73671;BME280;61968;48.178;11.566;2022-07-09T02:22:18;96757.91;;;15.08;36.20
73671;BME280;61968;48.178;11.566;2022-07-09T02:24:44;96752.84;;;14.94;36.57
73671;BME280;61968;48.178;11.566;2022-07-09T02:27:11;96745.41;;;14.96;36.52
73671;BME280;61968;48.178;11.566;2022-07-09T02:29:39;96749.94;;;15.08;36.59
73671;BME280;61968;48.178;11.566;2022-07-09T02:32:06;96748.44;;;15.00;36.57
73671;BME280;61968;48.178;11.566;2022-07-09T02:34:35;96747.97;;;15.03;36.80
73671;BME280;61968;48.178;11.566;2022-07-09T02:37:02;96745.41;;;14.96;36.80
73671;BME280;61968;48.178;11.566;2022-07-09T02:39:28;96737.19;;;15.10;36.50
73671;BME280;61968;48.178;11.566;2022-07-09T02:41:55;96731.97;;;15.27;36.40
73671;BME280;61968;48.178;11.566;2022-07-09T02:44:21;96732.34;;;15.07;36.99
73671;BME280;61968;48.178;11.566;2022-07-09T02:46:49;96737.47;;;14.85;37.46
73671;BME280;61968;48.178;11.566;2022-07-09T02:49:16;96728.78;;;14.78;37.72
73671;BME280;61968;48.178;11.566;2022-07-09T02:51:42;96722.84;;;14.87;37.53
73671;BME280;61968;48.178;11.566;2022-07-09T02:54:09;96719.84;;;14.84;37.69
73671;BME280;61968;48.178;11.566;2022-07-09T02:56:35;96735.28;;;14.82;37.81
73671;BME280;61968;48.178;11.566;2022-07-09T02:59:02;96728.63;;;14.84;37.80
73671;BME280;61968;48.178;11.566;2022-07-09T03:01:29;96725.63;;;14.92;37.48
73671;BME280;61968;48.178;11.566;2022-07-09T03:03:57;96743.00;;;15.07;37.26
73671;BME280;61968;48.178;11.566;2022-07-09T03:06:24;96730.25;;;15.09;37.42
73671;BME280;61968;48.178;11.566;2022-07-09T03:08:50;96734.41;;;15.05;37.61
73671;BME280;61968;48.178;11.566;2022-07-09T03:11:17;96739.75;;;15.05;37.20
73671;BME280;61968;48.178;11.566;2022-07-09T03:13:43;96743.47;;;15.04;37.65
73671;BME280;61968;48.178;11.566;2022-07-09T03:16:10;96740.91;;;15.09;37.88
73671;BME280;61968;48.178;11.566;2022-07-09T03:18:36;96740.91;;;15.09;37.67
73671;BME280;61968;48.178;11.566;2022-07-09T03:21:05;96739.53;;;14.94;38.16
73671;BME280;61968;48.178;11.566;2022-07-09T03:23:33;96746.72;;;14.82;38.41
73671;BME280;61968;48.178;11.566;2022-07-09T03:26:00;96741.16;;;14.95;38.11
73671;BME280;61968;48.178;11.566;2022-07-09T03:28:27;96743.91;;;15.12;37.77
73671;BME280;61968;48.178;11.566;2022-07-09T03:30:56;96745.06;;;15.05;37.91
73671;BME280;61968;48.178;11.566;2022-07-09T03:33:22;96749.47;;;15.11;37.90
73671;BME280;61968;48.178;11.566;2022-07-09T03:35:49;96739.84;;;15.10;37.73
73671;BME280;61968;48.178;11.566;2022-07-09T03:38:17;96741.94;;;15.08;37.77
73671;BME280;61968;48.178;11.566;2022-07-09T03:40:43;96745.78;;;15.12;37.87
73671;BME280;61968;48.178;11.566;2022-07-09T03:43:10;96746.56;;;15.12;37.98
73671;BME280;61968;48.178;11.566;2022-07-09T03:45:36;96748.06;;;15.08;38.13
73671;BME280;61968;48.178;11.566;2022-07-09T03:48:04;96749.00;;;14.90;38.42
73671;BME280;61968;48.178;11.566;2022-07-09T03:50:30;96751.91;;;15.01;38.55
73671;BME280;61968;48.178;11.566;2022-07-09T03:52:57;96759.78;;;14.84;38.94
73671;BME280;61968;48.178;11.566;2022-07-09T03:55:25;96763.84;;;14.86;38.83
73671;BME280;61968;48.178;11.566;2022-07-09T03:57:51;96764.66;;;14.99;38.88
73671;BME280;61968;48.178;11.566;2022-07-09T04:00:18;96758.06;;;14.89;38.91
73671;BME280;61968;48.178;11.566;2022-07-09T04:02:44;96763.38;;;14.89;39.12
73671;BME280;61968;48.178;11.566;2022-07-09T04:05:11;96757.56;;;15.04;39.04
73671;BME280;61968;48.178;11.566;2022-07-09T04:07:40;96761.16;;;15.10;38.81
73671;BME280;61968;48.178;11.566;2022-07-09T04:10:07;96755.03;;;15.21;39.22
73671;BME280;61968;48.178;11.566;2022-07-09T04:12:35;96759.91;;;15.01;39.89
73671;BME280;61968;48.178;11.566;2022-07-09T04:15:02;96763.38;;;14.89;39.62
73671;BME280;61968;48.178;11.566;2022-07-09T04:17:29;96761.66;;;14.83;40.55
73671;BME280;61968;48.178;11.566;2022-07-09T04:19:55;96760.97;;;14.88;40.44
73671;BME280;61968;48.178;11.566;2022-07-09T04:22:22;96757.00;;;14.90;40.36
73671;BME280;61968;48.178;11.566;2022-07-09T04:24:48;96763.97;;;14.91;40.25
73671;BME280;61968;48.178;11.566;2022-07-09T04:27:15;96759.66;;;14.90;40.44
73671;BME280;61968;48.178;11.566;2022-07-09T04:29:43;96760.84;;;14.83;40.67
73671;BME280;61968;48.178;11.566;2022-07-09T04:32:09;96759.31;;;14.75;40.75
73671;BME280;61968;48.178;11.566;2022-07-09T04:34:36;96760.16;;;14.64;41.38
73671;BME280;61968;48.178;11.566;2022-07-09T04:37:03;96761.75;;;14.41;42.20
73671;BME280;61968;48.178;11.566;2022-07-09T04:39:30;96757.94;;;14.49;41.85
73671;BME280;61968;48.178;11.566;2022-07-09T04:41:56;96758.63;;;14.56;41.53
73671;BME280;61968;48.178;11.566;2022-07-09T04:44:23;96754.47;;;14.48;42.03
73671;BME280;61968;48.178;11.566;2022-07-09T04:46:51;96775.41;;;14.57;41.86
73671;BME280;61968;48.178;11.566;2022-07-09T04:49:18;96759.69;;;14.67;41.62
73671;BME280;61968;48.178;11.566;2022-07-09T04:51:46;96764.56;;;14.70;41.75
73671;BME280;61968;48.178;11.566;2022-07-09T04:54:12;96760.97;;;14.64;41.98
73671;BME280;61968;48.178;11.566;2022-07-09T04:56:39;96761.31;;;14.68;41.99
73671;BME280;61968;48.178;11.566;2022-07-09T04:59:06;96765.81;;;14.79;41.79
73671;BME280;61968;48.178;11.566;2022-07-09T05:01:35;96764.91;;;14.73;42.04
73671;BME280;61968;48.178;11.566;2022-07-09T05:04:03;96770.09;;;14.80;41.87
73671;BME280;61968;48.178;11.566;2022-07-09T05:06:29;96766.28;;;14.88;41.69
73671;BME280;61968;48.178;11.566;2022-07-09T05:08:56;96761.97;;;14.75;42.25
73671;BME280;61968;48.178;11.566;2022-07-09T05:11:22;96767.44;;;14.80;41.95
73671;BME280;61968;48.178;11.566;2022-07-09T05:13:49;96766.50;;;14.86;42.13
73671;BME280;61968;48.178;11.566;2022-07-09T05:16:15;96769.50;;;15.02;41.88
73671;BME280;61968;48.178;11.566;2022-07-09T05:18:42;96768.81;;;15.06;41.47
73671;BME280;61968;48.178;11.566;2022-07-09T05:21:10;96772.63;;;15.10;41.67
73671;BME280;61968;48.178;11.566;2022-07-09T05:23:37;96768.34;;;14.98;41.77
73671;BME280;61968;48.178;11.566;2022-07-09T05:26:04;96773.69;;;14.86;42.13
73671;BME280;61968;48.178;11.566;2022-07-09T05:28:30;96770.56;;;15.01;41.63
73671;BME280;61968;48.178;11.566;2022-07-09T05:30:57;96774.38;;;14.93;41.71
73671;BME280;61968;48.178;11.566;2022-07-09T05:33:23;96770.31;;;14.90;41.87
73671;BME280;61968;48.178;11.566;2022-07-09T05:35:50;96773.31;;;15.06;41.39
73671;BME280;61968;48.178;11.566;2022-07-09T05:38:18;96774.72;;;15.20;41.01
73671;BME280;61968;48.178;11.566;2022-07-09T05:40:46;96771.25;;;15.20;41.01
73671;BME280;61968;48.178;11.566;2022-07-09T05:43:12;96768.44;;;15.14;41.10
73671;BME280;61968;48.178;11.566;2022-07-09T05:45:39;96767.53;;;15.09;41.10
73671;BME280;61968;48.178;11.566;2022-07-09T05:48:05;96774.16;;;15.06;41.39
73671;BME280;61968;48.178;11.566;2022-07-09T05:50:32;96771.94;;;15.03;41.47
73671;BME280;61968;48.178;11.566;2022-07-09T05:52:58;96775.78;;;15.19;40.92
73671;BME280;61968;48.178;11.566;2022-07-09T05:55:26;96771.38;;;15.25;40.87
73671;BME280;61968;48.178;11.566;2022-07-09T05:57:53;96769.50;;;15.25;40.87
73671;BME280;61968;48.178;11.566;2022-07-09T06:00:24;96768.69;;;15.13;41.31
73671;BME280;61968;48.178;11.566;2022-07-09T06:02:50;96772.38;;;15.24;40.83
73671;BME280;61968;48.178;11.566;2022-07-09T06:05:17;96776.09;;;15.34;40.78
73671;BME280;61968;48.178;11.566;2022-07-09T06:07:45;96775.25;;;15.46;40.35
73671;BME280;61968;48.178;11.566;2022-07-09T06:10:11;96777.63;;;15.30;40.43
73671;BME280;61968;48.178;11.566;2022-07-09T06:12:40;96779.94;;;15.03;40.54
73671;BME280;61968;48.178;11.566;2022-07-09T06:15:08;96785.16;;;14.98;40.92
73671;BME280;61968;48.178;11.566;2022-07-09T06:17:34;96780.75;;;14.92;40.92
73671;BME280;61968;48.178;11.566;2022-07-09T06:20:01;96781.09;;;14.95;40.78
73671;BME280;61968;48.178;11.566;2022-07-09T06:22:28;96781.88;;;15.08;40.81
73671;BME280;61968;48.178;11.566;2022-07-09T06:24:54;96774.81;;;15.13;40.50
73671;BME280;61968;48.178;11.566;2022-07-09T06:27:21;96786.75;;;15.23;40.21
73671;BME280;61968;48.178;11.566;2022-07-09T06:29:48;96781.06;;;15.43;39.93
73671;BME280;61968;48.178;11.566;2022-07-09T06:32:15;96781.28;;;15.41;39.28
73671;BME280;61968;48.178;11.566;2022-07-09T06:34:42;96779.56;;;15.35;39.01
73671;BME280;61968;48.178;11.566;2022-07-09T06:37:08;96777.94;;;15.46;38.71
73671;BME280;61968;48.178;11.566;2022-07-09T06:39:35;96780.00;;;15.44;38.36
73671;BME280;61968;48.178;11.566;2022-07-09T06:42:11;96786.97;;;15.33;38.57
73671;BME280;61968;48.178;11.566;2022-07-09T06:44:39;96776.28;;;15.45;38.13
73671;BME280;61968;48.178;11.566;2022-07-09T06:47:07;96775.59;;;15.49;37.64
73671;BME280;61968;48.178;11.566;2022-07-09T06:49:33;96785.06;;;15.57;37.87
73671;BME280;61968;48.178;11.566;2022-07-09T06:52:00;96781.38;;;15.86;43.24
73671;BME280;61968;48.178;11.566;2022-07-09T06:54:27;96773.03;;;16.12;42.75
73671;BME280;61968;48.178;11.566;2022-07-09T06:56:54;96772.06;;;16.18;39.04
73671;BME280;61968;48.178;11.566;2022-07-09T06:59:21;96774.28;;;16.21;39.94
73671;BME280;61968;48.178;11.566;2022-07-09T07:01:48;96769.75;;;16.21;38.27
73671;BME280;61968;48.178;11.566;2022-07-09T07:04:15;96771.41;;;16.39;38.47
73671;BME280;61968;48.178;11.566;2022-07-09T07:06:42;96778.00;;;16.53;36.44
73671;BME280;61968;48.178;11.566;2022-07-09T07:09:09;96779.97;;;16.58;38.23
73671;BME280;61968;48.178;11.566;2022-07-09T07:11:36;96779.44;;;16.73;36.80
73671;BME280;61968;48.178;11.566;2022-07-09T07:14:02;96783.75;;;16.62;37.88
73671;BME280;61968;48.178;11.566;2022-07-09T07:16:29;96781.56;;;16.59;37.01
73671;BME280;61968;48.178;11.566;2022-07-09T07:18:55;96777.59;;;16.62;37.13
73671;BME280;61968;48.178;11.566;2022-07-09T07:21:23;96774.31;;;16.71;38.20
73671;BME280;61968;48.178;11.566;2022-07-09T07:23:50;96777.38;;;16.97;36.96
73671;BME280;61968;48.178;11.566;2022-07-09T07:26:16;96779.59;;;17.05;35.72
73671;BME280;61968;48.178;11.566;2022-07-09T07:28:43;96778.13;;;17.14;35.67
73671;BME280;61968;48.178;11.566;2022-07-09T07:31:09;96775.22;;;17.16;36.37
73671;BME280;61968;48.178;11.566;2022-07-09T07:33:36;96770.31;;;17.30;36.09
73671;BME280;61968;48.178;11.566;2022-07-09T07:36:04;96771.00;;;17.20;36.21
73671;BME280;61968;48.178;11.566;2022-07-09T07:38:32;96766.41;;;17.15;35.87
73671;BME280;61968;48.178;11.566;2022-07-09T07:40:59;96770.06;;;17.09;36.56
73671;BME280;61968;48.178;11.566;2022-07-09T07:43:25;96768.38;;;17.25;36.48
73671;BME280;61968;48.178;11.566;2022-07-09T07:45:52;96754.72;;;17.21;36.48
73671;BME280;61968;48.178;11.566;2022-07-09T07:48:18;96762.53;;;17.45;36.45
73671;BME280;61968;48.178;11.566;2022-07-09T07:50:45;96754.41;;;17.62;36.01
73671;BME280;61968;48.178;11.566;2022-07-09T07:53:11;96754.78;;;17.71;35.64
73671;BME280;61968;48.178;11.566;2022-07-09T07:55:39;96764.63;;;17.92;35.00
73671;BME280;61968;48.178;11.566;2022-07-09T07:58:06;96754.22;;;17.96;35.15
73671;BME280;61968;48.178;11.566;2022-07-09T08:00:33;96757.03;;;18.06;34.75
73671;BME280;61968;48.178;11.566;2022-07-09T08:02:59;96754.75;;;17.92;35.06
73671;BME280;61968;48.178;11.566;2022-07-09T08:05:26;96762.81;;;17.98;35.09
73671;BME280;61968;48.178;11.566;2022-07-09T08:07:53;96763.97;;;18.07;34.67
73671;BME280;61968;48.178;11.566;2022-07-09T08:10:19;96759.56;;;18.18;33.94
73671;BME280;61968;48.178;11.566;2022-07-09T08:12:47;96758.75;;;18.17;34.37
73671;BME280;61968;48.178;11.566;2022-07-09T08:15:14;96748.16;;;18.27;33.59
73671;BME280;61968;48.178;11.566;2022-07-09T08:17:40;96750.09;;;18.10;33.53
73671;BME280;61968;48.178;11.566;2022-07-09T08:20:08;96744.03;;;18.15;34.13
73671;BME280;61968;48.178;11.566;2022-07-09T08:22:35;96742.81;;;18.32;33.31
73671;BME280;61968;48.178;11.566;2022-07-09T08:25:02;96747.97;;;18.39;33.12
73671;BME280;61968;48.178;11.566;2022-07-09T08:27:28;96745.66;;;18.53;33.43
73671;BME280;61968;48.178;11.566;2022-07-09T08:29:56;96750.59;;;18.66;32.93
73671;BME280;61968;48.178;11.566;2022-07-09T08:32:23;96737.81;;;18.78;32.89
73671;BME280;61968;48.178;11.566;2022-07-09T08:34:50;96740.50;;;18.78;32.88
73671;BME280;61968;48.178;11.566;2022-07-09T08:37:25;96745.41;;;18.92;32.64
73671;BME280;61968;48.178;11.566;2022-07-09T08:39:55;96725.88;;;18.96;29.68
73671;BME280;61968;48.178;11.566;2022-07-09T08:42:22;96731.09;;;18.76;31.83
73671;BME280;61968;48.178;11.566;2022-07-09T08:44:50;96728.88;;;18.68;31.68
73671;BME280;61968;48.178;11.566;2022-07-09T08:47:18;96716.47;;;18.56;29.49
73671;BME280;61968;48.178;11.566;2022-07-09T08:49:49;96732.09;;;18.27;29.50
73671;BME280;61968;48.178;11.566;2022-07-09T08:52:21;96726.13;;;18.20;30.90
73671;BME280;61968;48.178;11.566;2022-07-09T08:54:53;96726.06;;;18.47;30.02
73671;BME280;61968;48.178;11.566;2022-07-09T08:57:23;96719.72;;;18.58;30.81
73671;BME280;61968;48.178;11.566;2022-07-09T08:59:52;96717.94;;;18.69;30.80
73671;BME280;61968;48.178;11.566;2022-07-09T09:02:21;96717.75;;;18.81;30.94
73671;BME280;61968;48.178;11.566;2022-07-09T09:04:48;96707.13;;;18.59;29.26
73671;BME280;61968;48.178;11.566;2022-07-09T09:07:23;96712.75;;;18.57;29.70
73671;BME280;61968;48.178;11.566;2022-07-09T09:09:50;96708.63;;;18.40;30.84
73671;BME280;61968;48.178;11.566;2022-07-09T09:12:26;96700.31;;;18.41;30.76
73671;BME280;61968;48.178;11.566;2022-07-09T09:14:53;96701.78;;;18.59;29.49
73671;BME280;61968;48.178;11.566;2022-07-09T09:17:21;96699.97;;;18.70;29.53
73671;BME280;61968;48.178;11.566;2022-07-09T09:19:48;96690.50;;;18.52;30.17
73671;BME280;61968;48.178;11.566;2022-07-09T09:22:15;96696.41;;;18.59;29.81
73671;BME280;61968;48.178;11.566;2022-07-09T09:24:41;96690.72;;;18.45;29.55
73671;BME280;61968;48.178;11.566;2022-07-09T09:27:08;96699.47;;;18.73;30.72
73671;BME280;61968;48.178;11.566;2022-07-09T09:29:35;96687.16;;;18.77;29.14
73671;BME280;61968;48.178;11.566;2022-07-09T09:32:09;96692.56;;;18.82;30.26
73671;BME280;61968;48.178;11.566;2022-07-09T09:34:38;96696.41;;;19.01;30.09
73671;BME280;61968;48.178;11.566;2022-07-09T09:37:06;96691.94;;;19.17;29.69
73671;BME280;61968;48.178;11.566;2022-07-09T09:39:35;96695.97;;;19.25;29.65
73671;BME280;61968;48.178;11.566;2022-07-09T09:42:03;96693.84;;;19.32;28.80
73671;BME280;61968;48.178;11.566;2022-07-09T09:44:31;96689.78;;;18.72;30.14
73671;BME280;61968;48.178;11.566;2022-07-09T09:47:06;96698.56;;;19.04;29.70
73671;BME280;61968;48.178;11.566;2022-07-09T09:49:34;96687.56;;;19.01;28.92
73671;BME280;61968;48.178;11.566;2022-07-09T09:52:07;96685.69;;;18.96;29.27
73671;BME280;61968;48.178;11.566;2022-07-09T09:54:35;96684.69;;;19.13;29.89
73671;BME280;61968;48.178;11.566;2022-07-09T09:57:05;96685.00;;;19.32;29.39
73671;BME280;61968;48.178;11.566;2022-07-09T09:59:33;96672.41;;;19.27;29.25
73671;BME280;61968;48.178;11.566;2022-07-09T10:02:03;96678.06;;;19.36;29.25
73671;BME280;61968;48.178;11.566;2022-07-09T10:04:32;96671.63;;;19.37;29.24
73671;BME280;61968;48.178;11.566;2022-07-09T10:06:59;96670.25;;;19.24;29.15
73671;BME280;61968;48.178;11.566;2022-07-09T10:09:27;96673.75;;;19.30;29.32
73671;BME280;61968;48.178;11.566;2022-07-09T10:11:53;96668.16;;;19.36;28.29
73671;BME280;61968;48.178;11.566;2022-07-09T10:14:30;96668.22;;;19.52;28.58
73671;BME280;61968;48.178;11.566;2022-07-09T10:17:09;96659.63;;;19.55;28.23
73671;BME280;61968;48.178;11.566;2022-07-09T10:19:36;96669.03;;;19.67;28.51
73671;BME280;61968;48.178;11.566;2022-07-09T10:22:04;96653.47;;;19.64;29.13
73671;BME280;61968;48.178;11.566;2022-07-09T10:24:33;96659.38;;;19.71;29.06
73671;BME280;61968;48.178;11.566;2022-07-09T10:27:04;96663.72;;;18.99;29.37
73671;BME280;61968;48.178;11.566;2022-07-09T10:29:31;96665.88;;;19.08;29.77
73671;BME280;61968;48.178;11.566;2022-07-09T10:31:58;96657.84;;;19.08;29.97
73671;BME280;61968;48.178;11.566;2022-07-09T10:34:58;96674.56;;;19.30;29.28
73671;BME280;61968;48.178;11.566;2022-07-09T10:37:33;96664.41;;;19.42;29.46
73671;BME280;61968;48.178;11.566;2022-07-09T10:40:12;96665.44;;;19.31;29.18
73671;BME280;61968;48.178;11.566;2022-07-09T10:42:39;96659.38;;;19.51;28.93
73671;BME280;61968;48.178;11.566;2022-07-09T10:45:23;96665.03;;;19.60;28.62
73671;BME280;61968;48.178;11.566;2022-07-09T10:47:52;96671.16;;;19.55;27.95
73671;BME280;61968;48.178;11.566;2022-07-09T10:50:19;96665.47;;;19.46;28.46
73671;BME280;61968;48.178;11.566;2022-07-09T10:52:45;96665.47;;;19.41;29.21
73671;BME280;61968;48.178;11.566;2022-07-09T10:55:15;96661.78;;;19.53;28.90
73671;BME280;61968;48.178;11.566;2022-07-09T10:57:42;96662.31;;;19.55;29.27
73671;BME280;61968;48.178;11.566;2022-07-09T11:00:14;96656.97;;;19.65;28.84
73671;BME280;61968;48.178;11.566;2022-07-09T11:02:51;96651.59;;;19.80;28.50
73671;BME280;61968;48.178;11.566;2022-07-09T11:05:17;96656.94;;;19.49;28.52
73671;BME280;61968;48.178;11.566;2022-07-09T11:07:54;96647.84;;;19.66;28.49
73671;BME280;61968;48.178;11.566;2022-07-09T11:10:22;96655.09;;;19.76;27.80
73671;BME280;61968;48.178;11.566;2022-07-09T11:12:49;96654.56;;;19.73;27.00
73671;BME280;61968;48.178;11.566;2022-07-09T11:15:19;96645.97;;;19.87;28.11
73671;BME280;61968;48.178;11.566;2022-07-09T11:17:54;96647.88;;;19.91;27.87
73671;BME280;61968;48.178;11.566;2022-07-09T11:20:21;96647.34;;;20.00;26.87
73671;BME280;61968;48.178;11.566;2022-07-09T11:22:47;96637.13;;;19.76;27.52
73671;BME280;61968;48.178;11.566;2022-07-09T11:25:14;96641.97;;;19.94;27.31
73671;BME280;61968;48.178;11.566;2022-07-09T11:27:43;96626.38;;;20.07;27.56
73671;BME280;61968;48.178;11.566;2022-07-09T11:30:12;96623.44;;;20.29;27.46
73671;BME280;61968;48.178;11.566;2022-07-09T11:32:40;96623.19;;;20.30;26.36
73671;BME280;61968;48.178;11.566;2022-07-09T11:35:07;96623.69;;;20.37;26.89
73671;BME280;61968;48.178;11.566;2022-07-09T11:37:34;96618.88;;;20.39;26.54
73671;BME280;61968;48.178;11.566;2022-07-09T11:40:01;96625.59;;;20.11;27.52
73671;BME280;61968;48.178;11.566;2022-07-09T11:42:28;96613.25;;;20.15;27.76
73671;BME280;61968;48.178;11.566;2022-07-09T11:44:58;96604.91;;;20.32;26.67
73671;BME280;61968;48.178;11.566;2022-07-09T11:47:33;96605.44;;;20.39;26.89
73671;BME280;61968;48.178;11.566;2022-07-09T11:50:08;96615.34;;;20.44;25.78
73671;BME280;61968;48.178;11.566;2022-07-09T11:52:36;96604.13;;;20.22;25.49
73671;BME280;61968;48.178;11.566;2022-07-09T11:55:04;96601.66;;;20.40;25.08
73671;BME280;61968;48.178;11.566;2022-07-09T11:57:33;96613.75;;;20.43;25.40
73671;BME280;61968;48.178;11.566;2022-07-09T12:00:03;96601.13;;;20.49;24.75
73671;BME280;61968;48.178;11.566;2022-07-09T12:02:32;96601.16;;;20.03;25.51
73671;BME280;61968;48.178;11.566;2022-07-09T12:04:59;96600.63;;;20.01;26.55
73671;BME280;61968;48.178;11.566;2022-07-09T12:07:26;96592.00;;;20.39;26.40
73671;BME280;61968;48.178;11.566;2022-07-09T12:10:00;96589.78;;;20.62;25.89
73671;BME280;61968;48.178;11.566;2022-07-09T12:12:30;96582.75;;;20.71;25.93
73671;BME280;61968;48.178;11.566;2022-07-09T12:14:57;96587.59;;;20.79;25.70
73671;BME280;61968;48.178;11.566;2022-07-09T12:17:28;96584.38;;;20.72;25.82
73671;BME280;61968;48.178;11.566;2022-07-09T12:19:55;96571.47;;;20.79;25.75
73671;BME280;61968;48.178;11.566;2022-07-09T12:22:23;96574.19;;;20.59;25.88
73671;BME280;61968;48.178;11.566;2022-07-09T12:24:50;96575.59;;;20.51;26.19
73671;BME280;61968;48.178;11.566;2022-07-09T12:27:17;96572.31;;;20.64;25.96
73671;BME280;61968;48.178;11.566;2022-07-09T12:29:45;96572.00;;;20.76;26.18
73671;BME280;61968;48.178;11.566;2022-07-09T12:32:12;96572.00;;;20.71;24.83
73671;BME280;61968;48.178;11.566;2022-07-09T12:34:40;96562.16;;;20.46;25.36
73671;BME280;61968;48.178;11.566;2022-07-09T12:37:06;96559.66;;;20.65;25.66
73671;BME280;61968;48.178;11.566;2022-07-09T12:39:33;96559.13;;;20.68;25.84
73671;BME280;61968;48.178;11.566;2022-07-09T12:42:00;96554.53;;;20.79;24.76
73671;BME280;61968;48.178;11.566;2022-07-09T12:44:26;96547.81;;;20.81;25.51
73671;BME280;61968;48.178;11.566;2022-07-09T12:46:53;96554.13;;;20.41;25.42
73671;BME280;61968;48.178;11.566;2022-07-09T12:49:19;96548.53;;;20.27;25.76
73671;BME280;61968;48.178;11.566;2022-07-09T12:51:47;96546.34;;;20.39;25.73